Time;durP1;ratioP1;P1;durP2;ratioP2;P2;SDS_P1;SDS_P2;PMS_P1;PMS_P2;Temp;Humidity;BMP_temperature;BMP_pressure;BME280_temperature;BME280_humidity;BME280_pressure;Samples;Min_cycle;Max_cycle;Signal;HPM_P1;HPM_P2
2023/09/07 00:01:52;;;;;;;11.68;5.95;;;22.40;92.90;;;;;;4985612;28;20549;-86
2023/09/07 00:04:19;;;;;;;9.55;5.95;;;22.40;92.90;;;;;;4990143;28;20030;-86
2023/09/07 00:06:44;;;;;;;9.70;5.32;;;22.30;93.10;;;;;;4991336;28;20058;-86
2023/09/07 00:09:11;;;;;;;8.38;5.78;;;22.30;93.10;;;;;;5001424;28;20061;-85
2023/09/07 00:11:37;;;;;;;12.93;5.93;;;22.30;93.20;;;;;;4997773;28;20077;-86
2023/09/07 00:14:07;;;;;;;9.70;5.72;;;22.20;93.20;;;;;;4987599;28;20034;-85
2023/09/07 00:16:37;;;;;;;8.10;5.40;;;22.20;93.20;;;;;;4989374;28;20339;-86
2023/09/07 00:19:04;;;;;;;9.10;5.07;;;22.20;93.70;;;;;;4987709;28;20026;-86
2023/09/07 00:21:29;;;;;;;8.00;5.20;;;22.20;93.40;;;;;;4989350;28;20048;-86
2023/09/07 00:23:55;;;;;;;5.75;5.20;;;22.20;93.50;;;;;;4986302;28;20542;-86
2023/09/07 00:26:21;;;;;;;14.27;6.07;;;22.10;93.50;;;;;;4987505;28;20447;-86
2023/09/07 00:28:46;;;;;;;8.48;5.88;;;22.10;93.50;;;;;;4985373;28;20033;-85
2023/09/07 00:31:12;;;;;;;8.65;5.90;;;22.10;93.60;;;;;;4985229;28;20493;-85
2023/09/07 00:33:38;;;;;;;9.27;5.35;;;22.00;93.70;;;;;;4987567;28;20022;-85
2023/09/07 00:36:03;;;;;;;9.55;5.50;;;22.00;93.70;;;;;;4986285;28;20455;-85
2023/09/07 00:38:29;;;;;;;9.93;5.75;;;22.00;93.60;;;;;;4987414;28;20026;-85
2023/09/07 00:40:55;;;;;;;9.60;6.18;;;22.00;93.60;;;;;;4986947;28;20034;-85
2023/09/07 00:43:20;;;;;;;6.22;5.63;;;22.00;93.70;;;;;;4982327;28;20022;-85
2023/09/07 00:45:46;;;;;;;10.30;5.32;;;21.90;93.70;;;;;;4985934;28;20068;-85
2023/09/07 00:48:13;;;;;;;7.20;5.50;;;21.90;93.90;;;;;;4985670;28;20022;-85
2023/09/07 00:50:39;;;;;;;9.07;5.85;;;21.80;93.90;;;;;;4984987;28;20069;-85
2023/09/07 00:53:06;;;;;;;9.57;6.22;;;21.80;94.00;;;;;;4986345;28;20109;-85
2023/09/07 00:55:38;;;;;;;9.20;6.55;;;21.80;93.90;;;;;;4987103;28;20058;-85
2023/09/07 00:58:04;;;;;;;11.73;6.68;;;21.80;94.10;;;;;;4986979;28;20042;-85
2023/09/07 01:00:30;;;;;;;10.10;6.07;;;21.70;94.20;;;;;;4986105;28;20041;-85
2023/09/07 01:02:56;;;;;;;10.57;6.35;;;21.60;94.30;;;;;;4984628;28;20023;-85
2023/09/07 01:05:29;;;;;;;10.70;6.53;;;21.60;94.40;;;;;;4986621;28;20410;-85
2023/09/07 01:08:07;;;;;;;12.50;6.93;;;21.60;94.30;;;;;;4986312;28;20947;-85
2023/09/07 01:10:33;;;;;;;11.30;6.97;;;21.60;94.30;;;;;;4986658;28;20394;-85
2023/09/07 01:12:58;;;;;;;14.10;7.10;;;21.50;94.50;;;;;;4987519;28;20060;-85
2023/09/07 01:15:24;;;;;;;7.75;6.30;;;21.50;94.70;;;;;;4988276;28;20546;-85
2023/09/07 01:17:50;;;;;;;10.52;6.47;;;21.40;94.70;;;;;;4986414;28;20049;-85
2023/09/07 01:20:17;;;;;;;13.20;6.82;;;21.40;94.70;;;;;;4991032;28;20027;-85
2023/09/07 01:22:43;;;;;;;10.30;6.22;;;21.30;94.90;;;;;;4989461;28;20026;-83
2023/09/07 01:25:09;;;;;;;13.20;6.57;;;21.30;95.00;;;;;;4987273;28;20033;-85
2023/09/07 01:27:35;;;;;;;12.43;7.10;;;21.30;94.90;;;;;;4985455;28;20032;-85
2023/09/07 01:30:02;;;;;;;8.20;5.78;;;21.30;94.90;;;;;;4982418;28;20026;-85
2023/09/07 01:32:28;;;;;;;9.10;6.35;;;21.30;94.80;;;;;;4979307;28;20033;-85
2023/09/07 01:34:57;;;;;;;9.50;6.65;;;21.40;94.80;;;;;;4986839;28;20923;-85
2023/09/07 01:37:23;;;;;;;7.68;5.68;;;21.40;94.70;;;;;;4983226;28;20475;-85
2023/09/07 01:39:49;;;;;;;12.80;5.88;;;21.30;94.60;;;;;;5001997;28;20053;-85
2023/09/07 01:42:15;;;;;;;14.77;6.10;;;21.30;94.70;;;;;;4987791;28;20099;-85
2023/09/07 01:44:41;;;;;;;10.52;5.90;;;21.40;94.90;;;;;;4986129;28;20097;-85
2023/09/07 01:47:07;;;;;;;9.80;6.28;;;21.30;94.50;;;;;;4986074;28;20031;-84
2023/09/07 01:49:32;;;;;;;10.68;6.13;;;21.40;94.60;;;;;;4988756;28;20695;-86
2023/09/07 01:51:58;;;;;;;8.18;6.47;;;21.30;94.50;;;;;;4983693;28;20047;-85
2023/09/07 01:54:23;;;;;;;8.80;6.22;;;21.30;94.60;;;;;;4985386;28;20471;-85
2023/09/07 01:56:49;;;;;;;7.88;5.70;;;21.20;95.00;;;;;;4988000;28;20034;-84
2023/09/07 01:59:14;;;;;;;8.93;5.70;;;21.30;94.70;;;;;;4985099;28;20475;-85
2023/09/07 02:01:40;;;;;;;8.32;6.00;;;21.20;94.60;;;;;;4987244;28;20030;-86
2023/09/07 02:04:06;;;;;;;7.18;5.18;;;21.20;94.70;;;;;;4984366;28;20054;-85
2023/09/07 02:06:32;;;;;;;11.25;5.85;;;21.10;94.60;;;;;;4985859;28;20023;-84
2023/09/07 02:08:58;;;;;;;8.75;5.43;;;21.10;94.70;;;;;;4988329;28;20026;-85
2023/09/07 02:11:25;;;;;;;6.85;5.97;;;21.10;94.80;;;;;;4984221;28;20033;-84
2023/09/07 02:13:51;;;;;;;8.02;5.35;;;21.00;94.80;;;;;;4984924;28;20463;-85
2023/09/07 02:16:18;;;;;;;9.95;5.18;;;21.00;94.90;;;;;;4986320;28;20121;-85
2023/09/07 02:18:46;;;;;;;7.90;5.32;;;20.90;94.90;;;;;;4985444;28;20122;-84
2023/09/07 02:21:12;;;;;;;8.27;5.65;;;20.80;95.30;;;;;;4983114;28;20470;-85
2023/09/07 02:23:38;;;;;;;5.32;4.82;;;20.90;95.00;;;;;;4991081;28;20030;-84
2023/09/07 02:26:04;;;;;;;6.95;5.38;;;20.90;95.10;;;;;;4992157;28;20057;-85
2023/09/07 02:28:30;;;;;;;7.20;5.07;;;20.90;95.40;;;;;;4976759;28;20118;-84
2023/09/07 02:31:02;;;;;;;8.52;5.78;;;20.90;95.10;;;;;;4986505;28;20022;-85
2023/09/07 02:33:28;;;;;;;9.45;5.13;;;20.80;95.00;;;;;;4985249;28;20058;-85
2023/09/07 02:35:54;;;;;;;8.85;5.50;;;20.80;95.00;;;;;;4986285;28;20443;-84
2023/09/07 02:38:19;;;;;;;6.75;5.13;;;20.80;95.10;;;;;;4985315;28;20023;-84
2023/09/07 02:40:45;;;;;;;6.07;5.03;;;20.80;95.30;;;;;;4985608;28;20514;-84
2023/09/07 02:43:11;;;;;;;8.32;5.85;;;20.80;95.30;;;;;;4986739;28;20022;-85
2023/09/07 02:45:38;;;;;;;9.43;5.15;;;20.70;95.20;;;;;;4985153;28;20478;-84
2023/09/07 02:48:04;;;;;;;6.35;4.97;;;20.70;95.30;;;;;;4986022;28;20041;-85
2023/09/07 02:50:32;;;;;;;6.60;5.03;;;20.70;95.30;;;;;;4987564;28;20031;-85
2023/09/07 02:52:57;;;;;;;7.28;5.07;;;20.70;95.30;;;;;;4985480;28;20053;-84
2023/09/07 02:55:25;;;;;;;7.05;5.07;;;20.60;95.50;;;;;;4985411;28;20039;-84
2023/09/07 02:57:51;;;;;;;6.38;4.80;;;20.60;95.40;;;;;;4986762;28;20057;-85
2023/09/07 03:00:17;;;;;;;7.75;5.57;;;20.60;95.50;;;;;;4983594;28;20018;-84
2023/09/07 03:02:43;;;;;;;7.82;5.30;;;20.50;95.50;;;;;;4986152;28;20030;-85
2023/09/07 03:05:09;;;;;;;7.20;4.75;;;20.50;95.60;;;;;;4985592;28;20037;-85
2023/09/07 03:07:35;;;;;;;8.60;5.43;;;20.50;95.60;;;;;;4989982;28;20026;-84
2023/09/07 03:10:01;;;;;;;7.90;5.55;;;20.40;95.60;;;;;;4986793;28;20027;-85
2023/09/07 03:12:27;;;;;;;8.07;5.00;;;20.50;95.70;;;;;;4991168;28;20129;-85
2023/09/07 03:14:53;;;;;;;8.85;5.78;;;20.50;95.80;;;;;;4990847;28;20033;-85
2023/09/07 03:17:20;;;;;;;10.13;5.13;;;20.40;95.60;;;;;;4989792;28;20398;-84
2023/09/07 03:19:46;;;;;;;8.93;5.45;;;20.40;95.70;;;;;;4989955;28;20036;-85
2023/09/07 03:22:12;;;;;;;5.95;5.07;;;20.40;95.70;;;;;;4990664;28;20110;-85
2023/09/07 03:24:38;;;;;;;7.53;4.97;;;20.40;95.80;;;;;;4987441;28;20113;-83
2023/09/07 03:27:05;;;;;;;9.38;5.60;;;20.30;95.80;;;;;;4989091;28;20027;-85
2023/09/07 03:29:33;;;;;;;11.75;5.82;;;20.30;95.90;;;;;;4980289;28;20031;-85
2023/09/07 03:32:02;;;;;;;9.40;5.93;;;20.20;95.80;;;;;;4987984;28;20441;-85
2023/09/07 03:34:28;;;;;;;13.10;4.85;;;20.30;95.90;;;;;;4987905;28;20098;-84
2023/09/07 03:36:53;;;;;;;10.18;5.80;;;20.20;96.30;;;;;;4989176;28;20034;-85
2023/09/07 03:39:22;;;;;;;9.18;5.40;;;20.20;95.80;;;;;;4989010;28;20037;-85
2023/09/07 03:41:48;;;;;;;7.32;5.70;;;20.20;96.00;;;;;;4987033;28;20022;-85
2023/09/07 03:44:13;;;;;;;17.17;5.95;;;20.20;96.00;;;;;;4987299;28;20018;-85
2023/09/07 03:46:39;;;;;;;16.80;6.50;;;20.20;96.00;;;;;;4987986;28;20109;-86
2023/09/07 03:49:05;;;;;;;14.65;6.60;;;20.10;96.00;;;;;;4989249;28;20486;-84
2023/09/07 03:51:30;;;;;;;13.32;5.85;;;20.20;96.10;;;;;;4988042;28;20082;-85
2023/09/07 03:53:56;;;;;;;8.73;5.70;;;20.10;96.00;;;;;;4991549;28;20026;-85
2023/09/07 03:56:22;;;;;;;17.23;5.78;;;20.10;96.10;;;;;;4984706;28;21105;-85
2023/09/07 03:58:47;;;;;;;9.05;5.75;;;20.00;96.20;;;;;;4994919;28;20042;-85
2023/09/07 04:01:14;;;;;;;17.05;5.97;;;20.00;96.30;;;;;;4988186;28;20038;-85
2023/09/07 04:03:41;;;;;;;17.13;6.10;;;20.00;96.30;;;;;;4989632;28;20057;-85
2023/09/07 04:06:07;;;;;;;9.50;5.72;;;19.90;96.30;;;;;;4989339;28;20528;-85
2023/09/07 04:08:33;;;;;;;8.65;5.22;;;19.90;96.40;;;;;;4986635;28;20023;-85
2023/09/07 04:11:02;;;;;;;9.35;6.00;;;19.90;96.50;;;;;;4986293;28;20035;-85
2023/09/07 04:13:28;;;;;;;9.60;5.85;;;19.80;96.60;;;;;;4986329;28;20419;-85
2023/09/07 04:15:54;;;;;;;9.35;5.45;;;19.80;96.60;;;;;;4988267;28;20030;-85
2023/09/07 04:18:19;;;;;;;7.22;5.82;;;19.80;96.70;;;;;;4988369;28;20029;-85
2023/09/07 04:20:45;;;;;;;5.68;5.18;;;19.80;96.70;;;;;;4986531;28;20633;-85
2023/09/07 04:23:13;;;;;;;7.55;5.78;;;19.80;96.70;;;;;;4989604;28;20157;-85
2023/09/07 04:25:41;;;;;;;10.20;5.95;;;19.80;96.80;;;;;;4985296;28;20027;-85
2023/09/07 04:28:07;;;;;;;5.95;5.32;;;19.70;96.80;;;;;;4987733;28;20010;-85
2023/09/07 04:30:42;;;;;;;6.85;6.13;;;19.70;97.00;;;;;;4989387;28;20125;-84
2023/09/07 04:33:08;;;;;;;6.03;5.40;;;19.60;97.00;;;;;;4988852;28;20052;-85
2023/09/07 04:35:35;;;;;;;6.50;5.68;;;19.60;97.10;;;;;;4986441;28;20035;-84
2023/09/07 04:38:01;;;;;;;7.03;5.80;;;19.60;97.20;;;;;;4986125;28;20113;-86
2023/09/07 04:40:29;;;;;;;15.75;5.60;;;19.60;97.20;;;;;;4996495;28;20053;-85
2023/09/07 04:42:54;;;;;;;9.65;6.00;;;19.60;97.30;;;;;;4998240;28;20113;-85
2023/09/07 04:45:20;;;;;;;6.05;5.53;;;19.60;97.20;;;;;;4977809;28;20101;-85
2023/09/07 04:47:45;;;;;;;7.97;5.68;;;19.60;97.30;;;;;;4987402;28;20034;-85
2023/09/07 04:50:11;;;;;;;9.05;5.72;;;19.60;97.20;;;;;;4986999;28;20536;-85
2023/09/07 04:52:37;;;;;;;10.68;5.68;;;19.50;97.30;;;;;;4986089;28;20482;-85
2023/09/07 04:55:03;;;;;;;11.35;6.20;;;19.60;97.30;;;;;;4987969;28;20034;-85
2023/09/07 04:57:30;;;;;;;10.73;5.65;;;19.50;97.40;;;;;;4987111;28;20376;-85
2023/09/07 04:59:56;;;;;;;6.50;5.65;;;19.60;97.40;;;;;;4987330;28;20023;-85
2023/09/07 05:02:22;;;;;;;8.10;5.57;;;19.50;97.40;;;;;;4984783;28;20073;-85
2023/09/07 05:04:47;;;;;;;8.55;5.70;;;19.60;97.40;;;;;;4988799;28;20042;-84
2023/09/07 05:07:13;;;;;;;7.88;5.75;;;19.50;97.40;;;;;;4989066;28;20022;-85
2023/09/07 05:09:38;;;;;;;8.75;5.68;;;19.50;97.50;;;;;;4987872;28;20056;-84
2023/09/07 05:12:04;;;;;;;11.05;5.63;;;19.50;97.50;;;;;;4985663;28;20034;-85
2023/09/07 05:14:30;;;;;;;7.80;5.90;;;19.50;97.50;;;;;;4984425;28;20510;-84
2023/09/07 05:16:56;;;;;;;10.82;6.60;;;19.50;97.60;;;;;;4987789;28;20101;-84
2023/09/07 05:19:25;;;;;;;10.95;6.80;;;19.40;97.70;;;;;;4985457;28;20505;-85
2023/09/07 05:21:50;;;;;;;8.82;5.88;;;19.40;97.70;;;;;;4985843;28;20080;-85
2023/09/07 05:24:16;;;;;;;9.93;5.93;;;19.40;97.80;;;;;;4991021;28;20030;-85
2023/09/07 05:26:43;;;;;;;12.27;5.90;;;19.40;97.90;;;;;;4989999;28;20027;-84
2023/09/07 05:29:09;;;;;;;12.00;6.15;;;19.40;97.90;;;;;;5007420;28;20025;-85
2023/09/07 05:31:35;;;;;;;9.55;6.05;;;19.40;98.00;;;;;;5002541;28;20030;-83
2023/09/07 05:34:01;;;;;;;10.05;6.40;;;19.40;98.00;;;;;;4991962;28;20033;-86
2023/09/07 05:36:27;;;;;;;16.90;6.60;;;19.40;98.10;;;;;;4988740;28;20470;-85
2023/09/07 05:38:53;;;;;;;11.43;6.85;;;19.40;98.10;;;;;;4982973;28;20581;-85
2023/09/07 05:41:19;;;;;;;8.20;5.75;;;19.40;98.10;;;;;;4986301;28;20558;-85
2023/09/07 05:43:44;;;;;;;7.75;5.60;;;19.40;98.10;;;;;;4985573;28;20448;-85
2023/09/07 05:46:10;;;;;;;9.82;6.15;;;19.40;98.10;;;;;;4985235;28;20072;-85
2023/09/07 05:48:38;;;;;;;9.32;6.15;;;19.50;98.00;;;;;;4986792;28;20018;-85
2023/09/07 05:51:06;;;;;;;13.32;6.47;;;19.50;97.90;;;;;;4983449;28;20441;-84
2023/09/07 05:53:32;;;;;;;14.15;6.72;;;19.50;97.80;;;;;;4985312;28;20383;-85
2023/09/07 05:55:57;;;;;;;15.68;5.65;;;19.50;97.70;;;;;;4984770;28;20030;-84
2023/09/07 05:58:23;;;;;;;10.38;5.80;;;19.60;97.70;;;;;;4986394;28;20117;-85
2023/09/07 06:00:49;;;;;;;13.00;6.13;;;19.70;97.70;;;;;;4987650;28;20556;-85
2023/09/07 06:03:14;;;;;;;10.60;6.28;;;19.60;97.60;;;;;;4987909;28;20030;-85
2023/09/07 06:05:40;;;;;;;8.68;6.25;;;19.70;97.50;;;;;;4988912;28;20064;-86
2023/09/07 06:08:06;;;;;;;10.70;6.00;;;19.70;97.40;;;;;;4984771;28;20030;-84
2023/09/07 06:10:32;;;;;;;12.38;6.15;;;19.70;97.40;;;;;;4985573;28;20462;-84
2023/09/07 06:12:57;;;;;;;9.20;6.18;;;19.80;97.40;;;;;;4983212;28;20031;-85
2023/09/07 06:15:23;;;;;;;9.80;6.05;;;19.80;97.40;;;;;;4985732;28;20027;-85
2023/09/07 06:17:49;;;;;;;9.30;6.05;;;19.90;97.30;;;;;;4986645;28;20030;-85
2023/09/07 06:20:15;;;;;;;7.88;6.00;;;19.90;97.10;;;;;;4985698;28;20023;-88
2023/09/07 06:22:41;;;;;;;11.02;7.10;;;20.00;97.10;;;;;;4988426;28;20526;-87
2023/09/07 06:25:07;;;;;;;9.55;6.32;;;20.00;97.10;;;;;;4988057;28;20165;-88
2023/09/07 06:27:33;;;;;;;17.17;6.13;;;20.10;97.00;;;;;;4984390;28;20026;-86
2023/09/07 06:29:59;;;;;;;6.45;5.78;;;20.10;97.00;;;;;;4988753;28;20023;-87
2023/09/07 06:32:24;;;;;;;9.45;6.22;;;20.10;96.80;;;;;;4985789;28;20049;-86
2023/09/07 06:34:50;;;;;;;12.63;6.38;;;20.20;96.80;;;;;;4985483;28;20282;-88
2023/09/07 06:37:16;;;;;;;10.32;6.00;;;20.30;96.70;;;;;;4986585;28;20078;-87
2023/09/07 06:39:44;;;;;;;7.22;5.75;;;20.30;96.70;;;;;;4988426;28;20097;-88
2023/09/07 06:42:10;;;;;;;12.20;6.78;;;20.30;96.60;;;;;;4988323;28;20022;-87
2023/09/07 06:44:36;;;;;;;6.10;5.50;;;20.50;96.40;;;;;;4990527;28;20018;-87
2023/09/07 06:47:02;;;;;;;8.25;5.90;;;20.60;96.30;;;;;;4980880;28;20134;-89
2023/09/07 06:49:29;;;;;;;16.20;5.97;;;20.70;96.30;;;;;;5000709;28;20546;-87
2023/09/07 06:51:58;;;;;;;8.02;5.60;;;20.70;96.10;;;;;;4981878;28;20027;-87
2023/09/07 06:54:28;;;;;;;8.98;5.97;;;20.80;95.90;;;;;;4990883;28;20018;-87
2023/09/07 06:56:54;;;;;;;9.52;6.22;;;20.90;95.90;;;;;;5007265;28;20030;-87
2023/09/07 06:59:19;;;;;;;6.57;5.00;;;21.00;95.70;;;;;;4996612;28;20113;-87
2023/09/07 07:01:45;;;;;;;8.75;6.15;;;21.10;95.40;;;;;;4989196;28;20421;-87
2023/09/07 07:04:13;;;;;;;5.93;5.38;;;21.20;95.50;;;;;;4986510;28;20042;-82
2023/09/07 07:06:39;;;;;;;90.07;37.50;;;21.20;95.30;;;;;;4985872;28;20387;-81
2023/09/07 07:09:05;;;;;;;557.67;169.98;;;21.40;95.60;;;;;;4987815;28;20431;-82
2023/09/07 07:11:31;;;;;;;8.85;6.00;;;21.50;94.90;;;;;;4990899;28;20328;-87
2023/09/07 07:13:56;;;;;;;7.13;5.50;;;21.60;94.80;;;;;;4988850;28;20061;-88
2023/09/07 07:16:22;;;;;;;7.22;5.60;;;21.70;94.30;;;;;;4990418;28;20026;-87
2023/09/07 07:18:47;;;;;;;11.05;5.85;;;21.80;94.30;;;;;;4990016;28;20030;-89
2023/09/07 07:21:13;;;;;;;9.20;5.72;;;21.90;93.80;;;;;;4986324;28;20069;-87
2023/09/07 07:23:38;;;;;;;6.70;5.97;;;21.90;93.70;;;;;;4990195;28;20104;-86
2023/09/07 07:26:04;;;;;;;8.35;6.63;;;22.00;93.60;;;;;;4991046;28;20125;-86
2023/09/07 07:28:30;;;;;;;6.93;5.82;;;22.10;93.50;;;;;;4986248;28;20019;-87
2023/09/07 07:30:55;;;;;;;7.45;5.65;;;22.20;93.60;;;;;;4989959;28;20038;-90
2023/09/07 07:33:21;;;;;;;73.53;30.60;;;22.30;93.30;;;;;;4988334;28;20128;-83
2023/09/07 07:35:47;;;;;;;28.58;11.55;;;22.40;93.20;;;;;;4987130;28;20096;-84
2023/09/07 07:38:14;;;;;;;15.05;8.60;;;22.50;93.20;;;;;;4989799;28;20034;-84
2023/09/07 07:40:42;;;;;;;7.25;5.63;;;22.60;92.60;;;;;;4992821;28;20053;-88
2023/09/07 07:43:10;;;;;;;7.15;5.88;;;22.70;92.70;;;;;;5001909;28;20145;-86
2023/09/07 07:45:38;;;;;;;9.73;5.35;;;22.70;92.00;;;;;;5005996;28;20022;-89
2023/09/07 07:48:07;;;;;;;9.55;5.72;;;22.90;92.30;;;;;;4991059;28;20414;-87
2023/09/07 07:50:39;;;;;;;8.25;5.50;;;22.90;92.30;;;;;;4991032;28;20042;-87
2023/09/07 07:53:06;;;;;;;8.88;6.10;;;23.00;91.90;;;;;;4988856;28;20097;-84
2023/09/07 07:55:40;;;;;;;42.70;17.90;;;23.10;91.80;;;;;;4988191;28;20056;-84
2023/09/07 07:58:09;;;;;;;8.80;5.88;;;23.20;92.30;;;;;;4986784;28;20022;-83
2023/09/07 08:00:36;;;;;;;6.03;5.20;;;23.40;92.10;;;;;;4986130;28;20570;-84
2023/09/07 08:03:03;;;;;;;6.13;5.55;;;23.60;92.10;;;;;;4989040;28;20033;-83
2023/09/07 08:05:29;;;;;;;5.63;5.13;;;23.70;91.90;;;;;;4986461;28;20640;-84
2023/09/07 08:07:56;;;;;;;6.32;5.22;;;24.00;91.60;;;;;;4989740;28;20033;-86
2023/09/07 08:10:22;;;;;;;8.68;4.82;;;24.10;91.00;;;;;;4989650;28;20018;-88
2023/09/07 08:12:47;;;;;;;6.63;4.85;;;24.10;90.80;;;;;;4991354;28;20018;-87
2023/09/07 08:15:14;;;;;;;5.65;5.15;;;24.30;90.80;;;;;;4990493;28;20030;-90
2023/09/07 08:17:40;;;;;;;9.38;5.60;;;24.50;90.90;;;;;;4992914;28;20525;-88
2023/09/07 08:20:08;;;;;;;9.00;5.18;;;24.60;90.80;;;;;;4990294;28;20034;-86
2023/09/07 08:22:36;;;;;;;7.28;5.95;;;24.90;90.50;;;;;;4987026;28;20022;-87
2023/09/07 08:25:02;;;;;;;863.47;383.23;;;25.00;88.40;;;;;;4984841;28;20023;-85
2023/09/07 08:27:27;;;;;;;112.90;49.50;;;25.10;90.10;;;;;;4987045;28;20088;-86
2023/09/07 08:29:54;;;;;;;9.55;5.40;;;25.30;88.50;;;;;;4987265;28;20050;-88
2023/09/07 08:32:19;;;;;;;6.40;4.78;;;25.40;87.80;;;;;;4997946;28;20041;-85
2023/09/07 08:34:45;;;;;;;6.15;4.97;;;25.60;88.30;;;;;;5006744;28;20031;-87
2023/09/07 08:37:11;;;;;;;16.35;5.70;;;25.90;88.50;;;;;;5007033;28;20126;-88
2023/09/07 08:39:39;;;;;;;6.90;4.93;;;26.10;86.70;;;;;;4992817;28;20040;-87
2023/09/07 08:42:05;;;;;;;12.95;5.38;;;26.30;85.50;;;;;;4992104;28;20909;-87
2023/09/07 08:44:39;;;;;;;11.25;5.40;;;26.50;84.60;;;;;;4990619;28;20395;-87
2023/09/07 08:47:05;;;;;;;7.32;5.28;;;26.60;81.60;;;;;;4985938;28;20018;-88
2023/09/07 08:49:32;;;;;;;7.00;5.00;;;26.60;81.00;;;;;;4988533;28;20023;-87
2023/09/07 08:52:00;;;;;;;8.60;6.47;;;26.80;81.80;;;;;;4989786;28;20151;-88
2023/09/07 08:54:26;;;;;;;69.63;28.77;;;26.90;80.50;;;;;;4983547;28;20086;-87
2023/09/07 08:56:52;;;;;;;14.73;5.95;;;27.00;82.10;;;;;;4987301;28;20042;-88
2023/09/07 08:59:19;;;;;;;12.00;5.75;;;27.20;80.60;;;;;;4970925;28;20091;-89
2023/09/07 09:01:45;;;;;;;6.75;4.57;;;27.50;79.80;;;;;;4991656;28;20096;-90
2023/09/07 09:04:11;;;;;;;5.35;4.85;;;27.70;75.40;;;;;;4998245;28;20006;-88
2023/09/07 09:06:39;;;;;;;10.63;5.15;;;27.70;74.20;;;;;;5010024;28;20037;-88
2023/09/07 09:09:05;;;;;;;7.88;4.88;;;27.90;75.60;;;;;;4992842;28;20556;-89
2023/09/07 09:11:33;;;;;;;9.15;5.65;;;28.20;75.10;;;;;;4988224;28;20018;-89
2023/09/07 09:13:59;;;;;;;6.50;5.20;;;28.50;73.40;;;;;;4992721;28;20029;-89
2023/09/07 09:16:25;;;;;;;5.78;5.28;;;28.70;72.80;;;;;;4993674;28;20101;-91
2023/09/07 09:18:52;;;;;;;6.68;5.25;;;29.00;71.30;;;;;;4993685;28;20030;-91
2023/09/07 09:21:22;;;;;;;6.22;5.53;;;29.20;71.40;;;;;;4993539;28;20034;-92
2023/09/07 09:23:50;;;;;;;281.20;135.85;;;29.40;68.60;;;;;;4989001;28;20084;-90
2023/09/07 09:26:16;;;;;;;91.15;45.25;;;29.60;67.80;;;;;;4985563;28;20131;-90
2023/09/07 09:28:44;;;;;;;6.22;5.60;;;29.80;67.70;;;;;;4980625;28;20321;-88
2023/09/07 09:31:12;;;;;;;6.05;5.43;;;29.90;67.40;;;;;;4987658;28;20026;-88
2023/09/07 09:33:39;;;;;;;9.90;5.78;;;30.20;67.50;;;;;;4991122;28;21247;-88
2023/09/07 09:36:06;;;;;;;7.75;5.50;;;30.30;67.30;;;;;;4984847;28;20050;-88
2023/09/07 09:38:33;;;;;;;9.00;5.63;;;30.50;66.10;;;;;;4988241;28;20059;-88
2023/09/07 09:41:03;;;;;;;6.75;5.72;;;30.70;63.40;;;;;;5002919;28;20056;-88
2023/09/07 09:43:28;;;;;;;10.00;5.20;;;30.80;62.90;;;;;;4991493;28;20662;-89
2023/09/07 09:45:56;;;;;;;5.90;5.15;;;30.70;61.30;;;;;;4982858;28;20449;-89
2023/09/07 09:48:22;;;;;;;9.23;5.25;;;30.70;63.00;;;;;;4988208;28;20042;-89
2023/09/07 09:50:50;;;;;;;5.85;5.18;;;30.70;64.40;;;;;;4986569;28;20102;-89
2023/09/07 09:53:18;;;;;;;6.75;5.35;;;30.70;64.10;;;;;;4986710;28;20034;-89
2023/09/07 09:55:46;;;;;;;8.07;5.10;;;30.70;63.80;;;;;;4984938;28;20069;-88
2023/09/07 09:58:12;;;;;;;5.95;5.18;;;30.90;62.90;;;;;;4982641;28;20027;-84
2023/09/07 10:00:40;;;;;;;6.20;5.45;;;31.00;62.20;;;;;;4982603;28;20038;-90
2023/09/07 10:03:12;;;;;;;8.60;5.90;;;30.70;60.90;;;;;;4984660;28;20101;-92
2023/09/07 10:05:38;;;;;;;6.75;5.32;;;30.50;63.30;;;;;;4982068;28;20037;-90
2023/09/07 10:08:11;;;;;;;12.63;5.35;;;30.50;63.70;;;;;;4985108;28;20034;-90
2023/09/07 10:10:40;;;;;;;8.07;5.80;;;30.40;63.80;;;;;;4984371;28;20081;-92
2023/09/07 10:13:08;;;;;;;5.43;4.82;;;30.60;64.70;;;;;;4979795;28;20026;-90
2023/09/07 10:15:38;;;;;;;5.97;4.90;;;30.60;62.80;;;;;;4992094;28;20474;-90
2023/09/07 10:18:08;;;;;;;7.45;5.47;;;30.70;63.10;;;;;;4996090;28;20018;-90
2023/09/07 10:20:55;;;;;;;7.68;5.22;;;30.70;64.20;;;;;;4994156;28;20482;-90
2023/09/07 10:23:23;;;;;;;5.63;5.05;;;30.70;64.10;;;;;;4991376;28;20095;-90
2023/09/07 10:25:50;;;;;;;6.15;5.57;;;30.70;62.60;;;;;;4992385;28;20026;-90
2023/09/07 10:28:24;;;;;;;77.30;40.65;;;30.90;63.90;;;;;;4987008;28;20030;-88
2023/09/07 10:31:04;;;;;;;9.95;7.43;;;31.00;61.80;;;;;;4985176;28;20701;-91
2023/09/07 10:33:36;;;;;;;6.82;5.72;;;30.90;62.10;;;;;;4988484;28;20042;-89
2023/09/07 10:36:04;;;;;;;5.53;5.03;;;30.70;62.10;;;;;;4990836;28;20029;-90
2023/09/07 10:38:34;;;;;;;7.50;5.13;;;30.60;62.20;;;;;;5006494;28;20046;-90
2023/09/07 10:41:02;;;;;;;9.32;4.85;;;30.60;62.90;;;;;;4990635;28;20033;-91
2023/09/07 10:43:32;;;;;;;9.25;5.35;;;30.70;63.10;;;;;;4992311;28;20105;-90
2023/09/07 10:46:00;;;;;;;8.43;5.57;;;30.80;62.90;;;;;;4991208;28;20597;-87
2023/09/07 10:48:30;;;;;;;7.75;4.95;;;30.80;63.10;;;;;;4994032;28;20034;-91
2023/09/07 10:50:56;;;;;;;7.40;5.25;;;31.10;63.70;;;;;;5007693;28;20130;-91
2023/09/07 10:53:30;;;;;;;6.05;4.78;;;31.20;63.20;;;;;;4988518;28;20050;-90
2023/09/07 10:55:58;;;;;;;6.03;5.07;;;31.30;62.40;;;;;;4993990;28;20049;-90
2023/09/07 10:58:34;;;;;;;5.82;5.22;;;31.60;63.20;;;;;;4992053;28;20034;-91
2023/09/07 11:01:03;;;;;;;5.88;5.38;;;31.70;62.40;;;;;;4992520;28;20035;-91
2023/09/07 11:03:29;;;;;;;7.65;5.60;;;31.70;60.70;;;;;;4990999;28;20026;-92
2023/09/07 11:06:05;;;;;;;6.95;5.65;;;31.80;62.20;;;;;;4994144;28;20038;-91
2023/09/07 11:08:30;;;;;;;8.65;5.63;;;32.00;59.40;;;;;;4992251;28;20108;-90
2023/09/07 11:10:56;;;;;;;8.43;5.25;;;32.10;59.60;;;;;;4999882;28;20221;-91
2023/09/07 11:13:26;;;;;;;9.63;5.30;;;32.10;60.40;;;;;;5010207;28;20049;-89
2023/09/07 11:15:57;;;;;;;7.07;5.95;;;32.10;59.50;;;;;;4996262;28;20022;-92
2023/09/07 11:18:24;;;;;;;11.77;5.72;;;32.10;59.70;;;;;;4994544;28;20470;-91
2023/09/07 11:20:51;;;;;;;6.82;5.47;;;31.90;60.80;;;;;;4995676;28;20170;-90
2023/09/07 11:23:18;;;;;;;8.70;5.22;;;32.00;60.50;;;;;;4991291;28;20036;-89
2023/09/07 11:25:44;;;;;;;5.90;5.15;;;32.00;60.50;;;;;;5000281;28;20033;-90
2023/09/07 11:28:11;;;;;;;9.63;5.60;;;32.00;61.20;;;;;;5004024;28;20034;-90
2023/09/07 11:30:37;;;;;;;6.40;5.05;;;32.10;62.10;;;;;;4996866;28;20064;-91
2023/09/07 11:33:07;;;;;;;12.32;6.47;;;32.10;59.30;;;;;;5001717;28;20006;-92
2023/09/07 11:35:34;;;;;;;7.80;5.78;;;32.50;60.40;;;;;;5014221;28;20010;-89
2023/09/07 11:38:01;;;;;;;9.45;5.85;;;32.70;61.20;;;;;;5010773;28;20082;-88
2023/09/07 11:40:29;;;;;;;7.05;5.93;;;32.70;59.60;;;;;;5010328;28;20031;-90
2023/09/07 11:42:55;;;;;;;8.48;5.95;;;32.70;57.30;;;;;;4988067;28;20033;-89
2023/09/07 11:45:21;;;;;;;6.60;5.97;;;32.50;56.70;;;;;;4987907;28;20030;-88
2023/09/07 11:47:47;;;;;;;7.65;6.18;;;32.60;57.50;;;;;;4996396;28;20034;-89
2023/09/07 11:50:12;;;;;;;7.70;5.72;;;32.50;58.50;;;;;;5000021;28;20025;-87
2023/09/07 11:52:38;;;;;;;6.93;5.45;;;32.70;57.70;;;;;;4997544;28;20171;-88
2023/09/07 11:55:04;;;;;;;7.70;6.13;;;32.80;57.60;;;;;;4988333;28;20027;-88
2023/09/07 11:57:30;;;;;;;14.88;6.32;;;32.80;57.30;;;;;;4998701;28;20033;-90
2023/09/07 11:59:56;;;;;;;7.38;6.68;;;32.50;57.70;;;;;;4995004;28;20030;-91
2023/09/07 12:02:24;;;;;;;8.35;6.15;;;32.70;58.20;;;;;;5002188;28;20284;-91
2023/09/07 12:04:50;;;;;;;8.02;5.63;;;32.80;57.80;;;;;;4994669;28;20479;-91
2023/09/07 12:07:19;;;;;;;12.75;6.20;;;33.00;59.00;;;;;;4994619;28;20019;-90
2023/09/07 12:09:45;;;;;;;9.27;6.35;;;33.00;57.60;;;;;;4997464;28;20109;-89
2023/09/07 12:12:10;;;;;;;7.53;6.43;;;33.20;58.40;;;;;;4995867;28;20094;-90
2023/09/07 12:14:36;;;;;;;8.90;6.60;;;33.30;58.10;;;;;;4992043;28;20059;-92
2023/09/07 12:17:03;;;;;;;7.72;5.50;;;33.50;57.40;;;;;;4990422;28;20065;-90
2023/09/07 12:19:28;;;;;;;7.70;6.53;;;33.90;58.20;;;;;;4992843;28;20018;-90
2023/09/07 12:21:55;;;;;;;6.80;6.20;;;33.90;57.30;;;;;;4988635;28;20038;-90
2023/09/07 12:24:23;;;;;;;7.00;6.07;;;33.70;56.90;;;;;;4987175;28;20379;-90
2023/09/07 12:26:53;;;;;;;7.75;5.88;;;33.60;57.10;;;;;;4981432;28;20027;-90
2023/09/07 12:29:20;;;;;;;7.75;6.15;;;33.60;56.90;;;;;;5003524;28;20034;-90
2023/09/07 12:31:45;;;;;;;7.35;6.05;;;33.70;57.20;;;;;;4990793;28;20029;-90
2023/09/07 12:34:11;;;;;;;8.70;5.97;;;33.80;56.90;;;;;;4988898;28;20026;-93
2023/09/07 12:36:37;;;;;;;9.73;5.70;;;33.60;56.60;;;;;;4990728;28;20023;-92
2023/09/07 12:39:04;;;;;;;9.93;5.90;;;33.50;56.30;;;;;;4989600;28;20084;-91
2023/09/07 12:41:32;;;;;;;12.55;6.15;;;33.40;55.90;;;;;;4985305;28;20030;-91